sensor_id;sensor_type;location;lat;lon;timestamp;temperature;humidity
30594;DHT22;33199;47.590;8.300;2023-04-01T00:00:47;12.80;73.90
30594;DHT22;33199;47.590;8.300;2023-04-01T00:03:13;12.80;73.90
30594;DHT22;33199;47.590;8.300;2023-04-01T00:05:38;12.80;73.90
30594;DHT22;33199;47.590;8.300;2023-04-01T00:08:04;12.80;73.80
30594;DHT22;33199;47.590;8.300;2023-04-01T00:10:30;12.80;73.90
30594;DHT22;33199;47.590;8.300;2023-04-01T00:12:55;12.80;73.80
30594;DHT22;33199;47.590;8.300;2023-04-01T00:15:21;12.80;73.80
30594;DHT22;33199;47.590;8.300;2023-04-01T00:17:47;12.80;73.80
30594;DHT22;33199;47.590;8.300;2023-04-01T00:20:12;12.80;73.80
30594;DHT22;33199;47.590;8.300;2023-04-01T00:22:40;12.80;73.90
30594;DHT22;33199;47.590;8.300;2023-04-01T00:25:06;12.80;74.00
30594;DHT22;33199;47.590;8.300;2023-04-01T00:27:32;12.80;74.10
30594;DHT22;33199;47.590;8.300;2023-04-01T00:29:58;12.80;74.00
30594;DHT22;33199;47.590;8.300;2023-04-01T00:32:23;12.80;73.90
30594;DHT22;33199;47.590;8.300;2023-04-01T00:34:52;12.80;73.90
30594;DHT22;33199;47.590;8.300;2023-04-01T00:37:19;12.80;73.90
30594;DHT22;33199;47.590;8.300;2023-04-01T00:39:45;12.80;73.90
30594;DHT22;33199;47.590;8.300;2023-04-01T00:42:11;12.80;74.10
30594;DHT22;33199;47.590;8.300;2023-04-01T00:44:38;12.80;74.10
30594;DHT22;33199;47.590;8.300;2023-04-01T00:47:04;12.80;74.00
30594;DHT22;33199;47.590;8.300;2023-04-01T00:49:35;12.80;74.10
30594;DHT22;33199;47.590;8.300;2023-04-01T00:52:04;12.80;74.00
30594;DHT22;33199;47.590;8.300;2023-04-01T00:54:32;12.80;74.00
30594;DHT22;33199;47.590;8.300;2023-04-01T00:57:06;12.70;74.00
30594;DHT22;33199;47.590;8.300;2023-04-01T00:59:40;12.70;73.90
30594;DHT22;33199;47.590;8.300;2023-04-01T01:02:11;12.70;73.90
30594;DHT22;33199;47.590;8.300;2023-04-01T01:04:37;12.70;74.00
30594;DHT22;33199;47.590;8.300;2023-04-01T01:10:18;12.70;73.90
30594;DHT22;33199;47.590;8.300;2023-04-01T01:15:50;12.70;74.20
30594;DHT22;33199;47.590;8.300;2023-04-01T01:18:32;12.70;74.10
30594;DHT22;33199;47.590;8.300;2023-04-01T01:37:30;12.70;74.40
30594;DHT22;33199;47.590;8.300;2023-04-01T01:40:02;12.70;75.00
30594;DHT22;33199;47.590;8.300;2023-04-01T01:42:31;12.70;74.40
30594;DHT22;33199;47.590;8.300;2023-04-01T01:44:57;12.70;74.20
30594;DHT22;33199;47.590;8.300;2023-04-01T01:47:25;12.70;74.20
30594;DHT22;33199;47.590;8.300;2023-04-01T01:49:53;12.70;74.10
30594;DHT22;33199;47.590;8.300;2023-04-01T01:52:21;12.70;74.10
30594;DHT22;33199;47.590;8.300;2023-04-01T01:54:48;12.70;74.10
30594;DHT22;33199;47.590;8.300;2023-04-01T01:57:15;12.70;74.10
30594;DHT22;33199;47.590;8.300;2023-04-01T01:59:43;12.70;74.30
30594;DHT22;33199;47.590;8.300;2023-04-01T02:02:13;12.70;74.30
30594;DHT22;33199;47.590;8.300;2023-04-01T02:04:42;12.70;74.10
30594;DHT22;33199;47.590;8.300;2023-04-01T02:07:23;12.70;74.20
30594;DHT22;33199;47.590;8.300;2023-04-01T02:09:51;12.70;74.30
30594;DHT22;33199;47.590;8.300;2023-04-01T02:12:19;12.70;74.10
30594;DHT22;33199;47.590;8.300;2023-04-01T02:15:04;12.70;74.10
30594;DHT22;33199;47.590;8.300;2023-04-01T02:17:34;12.70;74.10
30594;DHT22;33199;47.590;8.300;2023-04-01T02:20:09;12.70;74.10
30594;DHT22;33199;47.590;8.300;2023-04-01T02:22:42;12.70;74.10
30594;DHT22;33199;47.590;8.300;2023-04-01T02:25:13;12.70;74.30
30594;DHT22;33199;47.590;8.300;2023-04-01T02:27:43;12.70;74.20
30594;DHT22;33199;47.590;8.300;2023-04-01T02:30:11;12.70;74.10
30594;DHT22;33199;47.590;8.300;2023-04-01T02:32:38;12.70;74.30
30594;DHT22;33199;47.590;8.300;2023-04-01T02:35:08;12.70;74.40
30594;DHT22;33199;47.590;8.300;2023-04-01T02:37:36;12.70;74.50
30594;DHT22;33199;47.590;8.300;2023-04-01T02:40:06;12.70;74.60
30594;DHT22;33199;47.590;8.300;2023-04-01T02:42:33;12.70;74.50
30594;DHT22;33199;47.590;8.300;2023-04-01T02:44:59;12.60;74.20
30594;DHT22;33199;47.590;8.300;2023-04-01T02:47:25;12.70;74.30
30594;DHT22;33199;47.590;8.300;2023-04-01T02:49:50;12.60;74.20
30594;DHT22;33199;47.590;8.300;2023-04-01T02:52:16;12.60;74.30
30594;DHT22;33199;47.590;8.300;2023-04-01T02:54:41;12.60;74.20
30594;DHT22;33199;47.590;8.300;2023-04-01T02:57:07;12.60;74.10
30594;DHT22;33199;47.590;8.300;2023-04-01T02:59:33;12.60;74.20
30594;DHT22;33199;47.590;8.300;2023-04-01T03:01:58;12.60;74.30
30594;DHT22;33199;47.590;8.300;2023-04-01T03:04:24;12.60;74.10
30594;DHT22;33199;47.590;8.300;2023-04-01T03:06:50;12.60;74.20
30594;DHT22;33199;47.590;8.300;2023-04-01T03:09:16;12.60;74.20
30594;DHT22;33199;47.590;8.300;2023-04-01T03:11:42;12.60;74.20
30594;DHT22;33199;47.590;8.300;2023-04-01T03:14:07;12.60;74.30
30594;DHT22;33199;47.590;8.300;2023-04-01T03:16:33;12.60;74.50
30594;DHT22;33199;47.590;8.300;2023-04-01T03:18:58;12.60;74.30
30594;DHT22;33199;47.590;8.300;2023-04-01T03:21:27;12.60;74.30
30594;DHT22;33199;47.590;8.300;2023-04-01T03:23:53;12.60;74.30
30594;DHT22;33199;47.590;8.300;2023-04-01T03:26:19;12.70;74.40
30594;DHT22;33199;47.590;8.300;2023-04-01T03:28:45;12.60;74.20
30594;DHT22;33199;47.590;8.300;2023-04-01T03:31:11;12.60;74.30
30594;DHT22;33199;47.590;8.300;2023-04-01T03:33:36;12.60;74.20
30594;DHT22;33199;47.590;8.300;2023-04-01T03:36:02;12.60;74.40
30594;DHT22;33199;47.590;8.300;2023-04-01T03:38:34;12.60;74.40
30594;DHT22;33199;47.590;8.300;2023-04-01T03:41:00;12.60;74.50
30594;DHT22;33199;47.590;8.300;2023-04-01T03:43:26;12.60;74.60
30594;DHT22;33199;47.590;8.300;2023-04-01T03:45:52;12.60;74.60
30594;DHT22;33199;47.590;8.300;2023-04-01T03:48:18;12.60;74.50
30594;DHT22;33199;47.590;8.300;2023-04-01T03:50:44;12.60;75.20
30594;DHT22;33199;47.590;8.300;2023-04-01T03:53:10;12.60;74.40
30594;DHT22;33199;47.590;8.300;2023-04-01T03:55:36;12.60;74.50
30594;DHT22;33199;47.590;8.300;2023-04-01T03:58:03;12.60;74.40
30594;DHT22;33199;47.590;8.300;2023-04-01T04:00:29;12.60;74.50
30594;DHT22;33199;47.590;8.300;2023-04-01T04:02:56;12.60;74.60
30594;DHT22;33199;47.590;8.300;2023-04-01T04:05:23;12.60;74.50
30594;DHT22;33199;47.590;8.300;2023-04-01T04:07:49;12.60;74.60
30594;DHT22;33199;47.590;8.300;2023-04-01T04:10:15;12.60;74.60
30594;DHT22;33199;47.590;8.300;2023-04-01T04:12:40;12.60;74.60
30594;DHT22;33199;47.590;8.300;2023-04-01T04:15:07;12.60;74.60
30594;DHT22;33199;47.590;8.300;2023-04-01T04:17:32;12.50;74.50
30594;DHT22;33199;47.590;8.300;2023-04-01T04:19:58;12.60;74.60
30594;DHT22;33199;47.590;8.300;2023-04-01T04:22:24;12.50;74.50
30594;DHT22;33199;47.590;8.300;2023-04-01T04:24:49;12.50;74.40
30594;DHT22;33199;47.590;8.300;2023-04-01T04:27:15;12.50;74.40
30594;DHT22;33199;47.590;8.300;2023-04-01T04:29:41;12.50;74.50
30594;DHT22;33199;47.590;8.300;2023-04-01T04:32:06;12.50;74.50
30594;DHT22;33199;47.590;8.300;2023-04-01T04:34:32;12.50;74.40
30594;DHT22;33199;47.590;8.300;2023-04-01T04:36:58;12.50;74.40
30594;DHT22;33199;47.590;8.300;2023-04-01T04:39:23;12.50;74.50
30594;DHT22;33199;47.590;8.300;2023-04-01T04:41:49;12.50;74.50
30594;DHT22;33199;47.590;8.300;2023-04-01T04:44:14;12.50;74.50
30594;DHT22;33199;47.590;8.300;2023-04-01T04:46:40;12.50;74.50
30594;DHT22;33199;47.590;8.300;2023-04-01T04:49:06;12.50;74.50
30594;DHT22;33199;47.590;8.300;2023-04-01T04:51:32;12.50;74.50
30594;DHT22;33199;47.590;8.300;2023-04-01T04:54:02;12.50;74.50
30594;DHT22;33199;47.590;8.300;2023-04-01T04:56:28;12.50;74.50
30594;DHT22;33199;47.590;8.300;2023-04-01T04:58:54;12.50;74.40
30594;DHT22;33199;47.590;8.300;2023-04-01T05:01:20;12.50;74.40
30594;DHT22;33199;47.590;8.300;2023-04-01T05:03:46;12.50;74.50
30594;DHT22;33199;47.590;8.300;2023-04-01T05:06:13;12.50;74.50
30594;DHT22;33199;47.590;8.300;2023-04-01T05:08:40;12.50;74.40
30594;DHT22;33199;47.590;8.300;2023-04-01T05:11:11;12.50;74.50
30594;DHT22;33199;47.590;8.300;2023-04-01T05:13:37;12.50;74.50
30594;DHT22;33199;47.590;8.300;2023-04-01T05:16:03;12.50;74.50
30594;DHT22;33199;47.590;8.300;2023-04-01T05:18:29;12.50;74.40
30594;DHT22;33199;47.590;8.300;2023-04-01T05:20:55;12.50;74.50
30594;DHT22;33199;47.590;8.300;2023-04-01T05:23:22;12.50;74.50
30594;DHT22;33199;47.590;8.300;2023-04-01T05:25:49;12.50;74.40
30594;DHT22;33199;47.590;8.300;2023-04-01T05:28:15;12.50;74.40
30594;DHT22;33199;47.590;8.300;2023-04-01T05:30:41;12.50;74.50
30594;DHT22;33199;47.590;8.300;2023-04-01T05:33:08;12.50;74.50
30594;DHT22;33199;47.590;8.300;2023-04-01T05:35:33;12.50;74.60
30594;DHT22;33199;47.590;8.300;2023-04-01T05:37:59;12.50;74.50
30594;DHT22;33199;47.590;8.300;2023-04-01T05:40:25;12.50;74.40
30594;DHT22;33199;47.590;8.300;2023-04-01T05:42:51;12.50;74.50
30594;DHT22;33199;47.590;8.300;2023-04-01T05:45:16;12.40;74.50
30594;DHT22;33199;47.590;8.300;2023-04-01T05:47:42;12.50;74.50
30594;DHT22;33199;47.590;8.300;2023-04-01T05:50:09;12.50;74.50
30594;DHT22;33199;47.590;8.300;2023-04-01T05:52:36;12.40;75.20
30594;DHT22;33199;47.590;8.300;2023-04-01T05:55:03;12.50;74.50
30594;DHT22;33199;47.590;8.300;2023-04-01T05:57:30;12.40;74.30
30594;DHT22;33199;47.590;8.300;2023-04-01T05:59:55;12.40;74.30
30594;DHT22;33199;47.590;8.300;2023-04-01T06:02:21;12.40;74.40
30594;DHT22;33199;47.590;8.300;2023-04-01T06:04:47;12.40;74.40
30594;DHT22;33199;47.590;8.300;2023-04-01T06:07:15;12.40;74.50
30594;DHT22;33199;47.590;8.300;2023-04-01T06:09:41;12.40;74.40
30594;DHT22;33199;47.590;8.300;2023-04-01T06:17:44;12.40;74.30
30594;DHT22;33199;47.590;8.300;2023-04-01T06:34:27;12.40;74.40
30594;DHT22;33199;47.590;8.300;2023-04-01T06:37:23;12.40;74.40
30594;DHT22;33199;47.590;8.300;2023-04-01T06:40:20;12.40;74.50
30594;DHT22;33199;47.590;8.300;2023-04-01T06:45:41;12.40;74.40
30594;DHT22;33199;47.590;8.300;2023-04-01T06:50:55;12.40;74.50
30594;DHT22;33199;47.590;8.300;2023-04-01T06:56:15;12.40;74.20
30594;DHT22;33199;47.590;8.300;2023-04-01T06:58:55;12.40;74.30
30594;DHT22;33199;47.590;8.300;2023-04-01T07:01:35;12.40;74.30
30594;DHT22;33199;47.590;8.300;2023-04-01T07:04:09;12.40;74.30
30594;DHT22;33199;47.590;8.300;2023-04-01T07:07:26;12.40;74.30
30594;DHT22;33199;47.590;8.300;2023-04-01T07:09:40;12.30;74.20
30594;DHT22;33199;47.590;8.300;2023-04-01T07:12:19;12.40;74.30
30594;DHT22;33199;47.590;8.300;2023-04-01T07:14:47;12.30;74.30
30594;DHT22;33199;47.590;8.300;2023-04-01T07:17:23;12.30;74.30
30594;DHT22;33199;47.590;8.300;2023-04-01T07:20:05;12.30;74.40
30594;DHT22;33199;47.590;8.300;2023-04-01T07:22:40;12.40;74.40
30594;DHT22;33199;47.590;8.300;2023-04-01T07:25:22;12.30;74.20
30594;DHT22;33199;47.590;8.300;2023-04-01T07:27:56;12.30;74.30
30594;DHT22;33199;47.590;8.300;2023-04-01T07:30:28;12.30;74.30
30594;DHT22;33199;47.590;8.300;2023-04-01T07:33:57;12.30;74.30
30594;DHT22;33199;47.590;8.300;2023-04-01T07:58:44;12.30;74.20
30594;DHT22;33199;47.590;8.300;2023-04-01T08:01:41;12.30;74.40
30594;DHT22;33199;47.590;8.300;2023-04-01T08:07:23;12.30;74.20
30594;DHT22;33199;47.590;8.300;2023-04-01T08:23:58;12.30;74.40
30594;DHT22;33199;47.590;8.300;2023-04-01T08:26:35;12.30;74.30
30594;DHT22;33199;47.590;8.300;2023-04-01T08:29:30;12.30;74.20
30594;DHT22;33199;47.590;8.300;2023-04-01T08:34:38;12.20;74.20
30594;DHT22;33199;47.590;8.300;2023-04-01T08:37:17;12.30;74.20
30594;DHT22;33199;47.590;8.300;2023-04-01T08:39:49;12.30;74.20
30594;DHT22;33199;47.590;8.300;2023-04-01T08:56:26;12.20;74.10
30594;DHT22;33199;47.590;8.300;2023-04-01T09:08:31;12.20;74.10
30594;DHT22;33199;47.590;8.300;2023-04-01T09:24:26;12.20;74.20
30594;DHT22;33199;47.590;8.300;2023-04-01T09:27:18;12.20;74.30
30594;DHT22;33199;47.590;8.300;2023-04-01T09:30:28;12.20;74.30
30594;DHT22;33199;47.590;8.300;2023-04-01T09:35:48;12.20;74.20
30594;DHT22;33199;47.590;8.300;2023-04-01T09:38:59;12.20;74.30
30594;DHT22;33199;47.590;8.300;2023-04-01T09:41:30;12.20;74.30
30594;DHT22;33199;47.590;8.300;2023-04-01T09:44:03;12.20;74.30
30594;DHT22;33199;47.590;8.300;2023-04-01T10:00:59;12.20;74.30
30594;DHT22;33199;47.590;8.300;2023-04-01T10:04:17;12.10;74.30
30594;DHT22;33199;47.590;8.300;2023-04-01T10:23:43;12.10;74.30
30594;DHT22;33199;47.590;8.300;2023-04-01T10:54:40;12.10;74.50
30594;DHT22;33199;47.590;8.300;2023-04-01T11:00:12;12.10;74.50
30594;DHT22;33199;47.590;8.300;2023-04-01T11:11:21;12.10;74.50
30594;DHT22;33199;47.590;8.300;2023-04-01T11:36:30;12.10;74.70
30594;DHT22;33199;47.590;8.300;2023-04-01T11:45:34;12.10;74.60
30594;DHT22;33199;47.590;8.300;2023-04-01T11:48:18;12.10;74.60
30594;DHT22;33199;47.590;8.300;2023-04-01T11:56:31;12.10;74.70
30594;DHT22;33199;47.590;8.300;2023-04-01T12:01:47;12.10;74.60
30594;DHT22;33199;47.590;8.300;2023-04-01T12:07:34;12.10;74.50
30594;DHT22;33199;47.590;8.300;2023-04-01T12:10:19;12.10;74.60
30594;DHT22;33199;47.590;8.300;2023-04-01T12:12:48;12.10;74.60
30594;DHT22;33199;47.590;8.300;2023-04-01T12:18:47;12.10;74.60
30594;DHT22;33199;47.590;8.300;2023-04-01T12:21:32;12.10;74.70
30594;DHT22;33199;47.590;8.300;2023-04-01T12:27:02;12.10;74.70
30594;DHT22;33199;47.590;8.300;2023-04-01T12:33:00;12.10;74.90
30594;DHT22;33199;47.590;8.300;2023-04-01T12:38:35;12.10;75.00
30594;DHT22;33199;47.590;8.300;2023-04-01T12:46:39;12.10;74.90
30594;DHT22;33199;47.590;8.300;2023-04-01T13:08:35;12.10;74.90
30594;DHT22;33199;47.590;8.300;2023-04-01T13:16:31;12.10;75.00
30594;DHT22;33199;47.590;8.300;2023-04-01T13:24:56;12.10;74.90
30594;DHT22;33199;47.590;8.300;2023-04-01T13:27:33;12.10;75.10
30594;DHT22;33199;47.590;8.300;2023-04-01T13:35:57;12.10;75.00
30594;DHT22;33199;47.590;8.300;2023-04-01T13:44:19;12.10;75.00
30594;DHT22;33199;47.590;8.300;2023-04-01T14:01:15;12.10;74.90
30594;DHT22;33199;47.590;8.300;2023-04-01T14:28:29;12.00;73.80
30594;DHT22;33199;47.590;8.300;2023-04-01T14:41:58;12.00;74.30
30594;DHT22;33199;47.590;8.300;2023-04-01T14:50:18;12.00;74.40
30594;DHT22;33199;47.590;8.300;2023-04-01T14:55:51;12.00;74.70
30594;DHT22;33199;47.590;8.300;2023-04-01T14:58:19;12.10;74.90
30594;DHT22;33199;47.590;8.300;2023-04-01T15:03:37;12.00;74.90
30594;DHT22;33199;47.590;8.300;2023-04-01T15:06:32;12.00;75.00
30594;DHT22;33199;47.590;8.300;2023-04-01T15:36:51;12.10;75.20
30594;DHT22;33199;47.590;8.300;2023-04-01T15:42:45;12.10;75.10
30594;DHT22;33199;47.590;8.300;2023-04-01T15:45:25;12.10;75.10
30594;DHT22;33199;47.590;8.300;2023-04-01T15:50:58;12.10;75.20
30594;DHT22;33199;47.590;8.300;2023-04-01T15:53:50;12.20;75.10
30594;DHT22;33199;47.590;8.300;2023-04-01T15:59:02;12.10;75.00
30594;DHT22;33199;47.590;8.300;2023-04-01T16:04:41;12.10;75.00
30594;DHT22;33199;47.590;8.300;2023-04-01T16:07:19;12.20;75.10
30594;DHT22;33199;47.590;8.300;2023-04-01T16:15:33;12.20;75.10
30594;DHT22;33199;47.590;8.300;2023-04-01T16:18:20;12.20;75.10
30594;DHT22;33199;47.590;8.300;2023-04-01T16:21:07;12.20;75.10
30594;DHT22;33199;47.590;8.300;2023-04-01T16:34:35;12.20;75.20
30594;DHT22;33199;47.590;8.300;2023-04-01T16:40:01;12.20;75.30
30594;DHT22;33199;47.590;8.300;2023-04-01T16:48:13;12.20;75.30
30594;DHT22;33199;47.590;8.300;2023-04-01T16:53:17;12.20;75.20
30594;DHT22;33199;47.590;8.300;2023-04-01T16:56:10;12.20;75.30
30594;DHT22;33199;47.590;8.300;2023-04-01T17:01:53;12.20;75.30
30594;DHT22;33199;47.590;8.300;2023-04-01T17:07:37;12.20;75.30
30594;DHT22;33199;47.590;8.300;2023-04-01T17:16:02;12.20;75.60
30594;DHT22;33199;47.590;8.300;2023-04-01T17:35:54;12.20;75.60
30594;DHT22;33199;47.590;8.300;2023-04-01T17:38:59;12.20;75.50
30594;DHT22;33199;47.590;8.300;2023-04-01T17:44:39;12.20;75.60
30594;DHT22;33199;47.590;8.300;2023-04-01T17:47:29;12.20;75.60
30594;DHT22;33199;47.590;8.300;2023-04-01T17:50:20;12.20;75.50
30594;DHT22;33199;47.590;8.300;2023-04-01T17:52:48;12.20;75.70
30594;DHT22;33199;47.590;8.300;2023-04-01T17:55:37;12.20;75.70
30594;DHT22;33199;47.590;8.300;2023-04-01T18:06:59;12.20;75.80
30594;DHT22;33199;47.590;8.300;2023-04-01T18:09:50;12.20;75.60
30594;DHT22;33199;47.590;8.300;2023-04-01T18:12:36;12.20;75.70
30594;DHT22;33199;47.590;8.300;2023-04-01T18:15:28;12.20;75.70
30594;DHT22;33199;47.590;8.300;2023-04-01T18:18:30;12.20;75.70
30594;DHT22;33199;47.590;8.300;2023-04-01T18:23:59;12.20;75.70
30594;DHT22;33199;47.590;8.300;2023-04-01T18:26:34;12.20;75.70
30594;DHT22;33199;47.590;8.300;2023-04-01T18:29:23;12.20;75.70
30594;DHT22;33199;47.590;8.300;2023-04-01T18:32:00;12.20;75.50
30594;DHT22;33199;47.590;8.300;2023-04-01T18:37:42;12.20;75.70
30594;DHT22;33199;47.590;8.300;2023-04-01T18:40:23;12.20;75.60
30594;DHT22;33199;47.590;8.300;2023-04-01T18:46:00;12.20;75.70
30594;DHT22;33199;47.590;8.300;2023-04-01T18:48:57;12.20;75.80
30594;DHT22;33199;47.590;8.300;2023-04-01T18:54:17;12.20;75.70
30594;DHT22;33199;47.590;8.300;2023-04-01T18:56:47;12.20;75.40
30594;DHT22;33199;47.590;8.300;2023-04-01T18:59:34;12.20;75.70
30594;DHT22;33199;47.590;8.300;2023-04-01T19:02:38;12.20;75.70
30594;DHT22;33199;47.590;8.300;2023-04-01T19:05:12;12.20;75.60
30594;DHT22;33199;47.590;8.300;2023-04-01T19:07:46;12.20;75.60
30594;DHT22;33199;47.590;8.300;2023-04-01T19:10:31;12.20;75.80
30594;DHT22;33199;47.590;8.300;2023-04-01T19:13:15;12.20;75.80
30594;DHT22;33199;47.590;8.300;2023-04-01T19:21:39;12.20;75.90
30594;DHT22;33199;47.590;8.300;2023-04-01T19:26:53;12.20;75.70
30594;DHT22;33199;47.590;8.300;2023-04-01T19:32:33;12.20;75.80
30594;DHT22;33199;47.590;8.300;2023-04-01T19:41:17;12.20;75.90
30594;DHT22;33199;47.590;8.300;2023-04-01T19:44:03;12.20;75.80
30594;DHT22;33199;47.590;8.300;2023-04-01T19:46:44;12.20;75.80
30594;DHT22;33199;47.590;8.300;2023-04-01T19:49:33;12.20;75.90
30594;DHT22;33199;47.590;8.300;2023-04-01T19:54:47;12.10;75.80
30594;DHT22;33199;47.590;8.300;2023-04-01T20:07:45;12.20;75.60
30594;DHT22;33199;47.590;8.300;2023-04-01T20:10:42;12.20;75.50
30594;DHT22;33199;47.590;8.300;2023-04-01T20:15:47;12.20;75.70
30594;DHT22;33199;47.590;8.300;2023-04-01T20:19:06;12.20;75.60
30594;DHT22;33199;47.590;8.300;2023-04-01T20:23:47;12.20;75.60
30594;DHT22;33199;47.590;8.300;2023-04-01T20:26:24;12.20;75.70
30594;DHT22;33199;47.590;8.300;2023-04-01T20:29:18;12.10;75.60
30594;DHT22;33199;47.590;8.300;2023-04-01T20:40:45;12.10;75.50
30594;DHT22;33199;47.590;8.300;2023-04-01T20:43:20;12.10;75.30
30594;DHT22;33199;47.590;8.300;2023-04-01T20:46:20;12.20;75.50
30594;DHT22;33199;47.590;8.300;2023-04-01T20:51:26;12.10;75.30
30594;DHT22;33199;47.590;8.300;2023-04-01T20:56:44;12.10;75.40
30594;DHT22;33199;47.590;8.300;2023-04-01T21:09:58;12.20;75.30
30594;DHT22;33199;47.590;8.300;2023-04-01T21:26:31;12.10;75.30
30594;DHT22;33199;47.590;8.300;2023-04-01T21:34:43;12.10;75.20
30594;DHT22;33199;47.590;8.300;2023-04-01T21:43:22;12.10;75.20
30594;DHT22;33199;47.590;8.300;2023-04-01T21:51:49;12.10;75.20
30594;DHT22;33199;47.590;8.300;2023-04-01T22:02:53;12.10;75.40
30594;DHT22;33199;47.590;8.300;2023-04-01T22:08:36;12.10;75.20
30594;DHT22;33199;47.590;8.300;2023-04-01T22:13:59;12.10;75.20
30594;DHT22;33199;47.590;8.300;2023-04-01T22:16:39;12.10;75.30
30594;DHT22;33199;47.590;8.300;2023-04-01T22:19:23;12.10;75.20
30594;DHT22;33199;47.590;8.300;2023-04-01T22:21:55;12.10;75.20
30594;DHT22;33199;47.590;8.300;2023-04-01T22:27:00;12.10;75.20
30594;DHT22;33199;47.590;8.300;2023-04-01T22:29:42;12.10;75.20
30594;DHT22;33199;47.590;8.300;2023-04-01T22:32:18;12.10;75.30
30594;DHT22;33199;47.590;8.300;2023-04-01T22:40:06;12.00;75.10
30594;DHT22;33199;47.590;8.300;2023-04-01T22:42:44;12.00;75.00
30594;DHT22;33199;47.590;8.300;2023-04-01T22:56:27;12.00;75.00
30594;DHT22;33199;47.590;8.300;2023-04-01T22:59:02;12.10;75.20
30594;DHT22;33199;47.590;8.300;2023-04-01T23:01:34;12.00;75.00
30594;DHT22;33199;47.590;8.300;2023-04-01T23:04:04;12.10;75.20
30594;DHT22;33199;47.590;8.300;2023-04-01T23:06:37;12.00;75.00
30594;DHT22;33199;47.590;8.300;2023-04-01T23:09:05;12.00;74.90
30594;DHT22;33199;47.590;8.300;2023-04-01T23:11:43;12.00;75.00
30594;DHT22;33199;47.590;8.300;2023-04-01T23:17:16;12.00;75.10
30594;DHT22;33199;47.590;8.300;2023-04-01T23:22:34;12.00;75.00
30594;DHT22;33199;47.590;8.300;2023-04-01T23:33:20;12.00;75.40
30594;DHT22;33199;47.590;8.300;2023-04-01T23:36:00;12.00;75.10
30594;DHT22;33199;47.590;8.300;2023-04-01T23:38:36;12.00;75.00
30594;DHT22;33199;47.590;8.300;2023-04-01T23:41:04;12.00;75.00
30594;DHT22;33199;47.590;8.300;2023-04-01T23:43:36;12.00;75.00
30594;DHT22;33199;47.590;8.300;2023-04-01T23:46:05;12.00;75.00
30594;DHT22;33199;47.590;8.300;2023-04-01T23:48:36;12.00;74.90
30594;DHT22;33199;47.590;8.300;2023-04-01T23:51:03;12.00;75.00
30594;DHT22;33199;47.590;8.300;2023-04-01T23:53:43;12.00;74.90
30594;DHT22;33199;47.590;8.300;2023-04-01T23:56:10;12.00;75.70
30594;DHT22;33199;47.590;8.300;2023-04-01T23:58:44;12.00;75.00
